createdAt,value
2022-11-09T00:00:08.248Z,69.41
2022-11-09T00:01:09.899Z,69.62
2022-11-09T00:02:11.556Z,69.78
2022-11-09T00:03:13.685Z,70.05
2022-11-09T00:04:15.403Z,69.67
2022-11-09T00:05:17.171Z,70.00
2022-11-09T00:06:18.828Z,69.45
2022-11-09T00:07:20.582Z,69.57
2022-11-09T00:08:22.521Z,69.77
2022-11-09T00:09:24.226Z,69.37
2022-11-09T00:10:25.925Z,69.11
2022-11-09T00:11:27.778Z,68.83
2022-11-09T00:12:29.441Z,68.30
2022-11-09T00:13:31.236Z,68.78
2022-11-09T00:14:33.245Z,68.39
2022-11-09T00:15:34.914Z,68.84
2022-11-09T00:16:36.619Z,68.98
2022-11-09T00:17:38.285Z,69.13
2022-11-09T00:18:41.438Z,68.63
2022-11-09T00:19:43.181Z,68.90
2022-11-09T00:20:48.047Z,69.19
2022-11-09T00:21:50.083Z,68.72
2022-11-09T00:22:51.747Z,68.38
2022-11-09T00:23:53.551Z,69.11
2022-11-09T00:24:55.198Z,68.53
2022-11-09T00:26:01.119Z,69.14
2022-11-09T00:27:02.784Z,68.57
2022-11-09T00:28:04.629Z,68.97
2022-11-09T00:29:06.476Z,68.78
2022-11-09T00:30:10.586Z,68.78
2022-11-09T00:31:20.537Z,69.02
2022-11-09T00:32:27.519Z,69.10
2022-11-09T00:33:29.553Z,68.38
2022-11-09T00:34:31.201Z,68.70
2022-11-09T00:35:33.568Z,68.92
2022-11-09T00:36:35.215Z,68.60
2022-11-09T00:37:36.934Z,68.27
2022-11-09T00:38:42.735Z,68.54
2022-11-09T00:39:44.448Z,68.83
2022-11-09T00:40:46.122Z,69.20
2022-11-09T00:41:47.779Z,69.25
2022-11-09T00:42:49.434Z,69.90
2022-11-09T00:43:51.904Z,69.56
2022-11-09T00:44:53.770Z,69.70
2022-11-09T00:45:55.465Z,69.15
2022-11-09T00:46:57.131Z,68.99
2022-11-09T00:47:58.814Z,70.05
2022-11-09T00:49:00.513Z,69.97
2022-11-09T00:50:02.160Z,70.38
2022-11-09T00:51:06.657Z,69.89
2022-11-09T00:52:08.747Z,69.96
2022-11-09T00:53:10.400Z,69.82
2022-11-09T00:54:12.658Z,69.96
2022-11-09T00:55:14.746Z,70.64
2022-11-09T00:56:16.480Z,70.94
2022-11-09T00:57:18.142Z,70.98
2022-11-09T00:58:19.871Z,70.93
2022-11-09T00:59:21.509Z,71.02
2022-11-09T01:00:26.344Z,70.95
2022-11-09T01:01:28.074Z,70.47
2022-11-09T01:02:29.836Z,71.29
2022-11-09T01:03:31.568Z,70.71
2022-11-09T01:04:33.325Z,71.25
2022-11-09T01:05:39.632Z,71.07
2022-11-09T01:06:41.447Z,70.91
2022-11-09T01:07:43.166Z,70.73
2022-11-09T01:08:45.870Z,70.27
2022-11-09T01:09:47.527Z,70.21
2022-11-09T01:10:49.475Z,70.58
2022-11-09T01:11:51.189Z,70.19
2022-11-09T01:12:52.808Z,69.95
2022-11-09T01:13:55.233Z,70.16
2022-11-09T01:14:56.945Z,70.08
2022-11-09T01:15:58.600Z,70.18
2022-11-09T01:17:00.262Z,69.69
2022-11-09T01:18:01.987Z,69.56
2022-11-09T01:19:04.053Z,70.09
2022-11-09T01:20:06.208Z,69.68
2022-11-09T01:21:11.012Z,69.60
2022-11-09T01:22:12.758Z,70.15
2022-11-09T01:23:16.742Z,69.90
2022-11-09T01:24:18.712Z,69.61
2022-11-09T01:25:20.346Z,69.40
2022-11-09T01:26:22.553Z,70.56
2022-11-09T01:27:24.266Z,69.74
2022-11-09T01:28:26.052Z,69.68
2022-11-09T01:29:27.758Z,69.60
2022-11-09T01:30:30.214Z,68.95
2022-11-09T01:31:32.022Z,69.50
2022-11-09T01:32:33.697Z,69.93
2022-11-09T01:33:36.052Z,69.51
2022-11-09T01:34:37.679Z,69.41
2022-11-09T01:35:40.653Z,69.45
2022-11-09T01:36:42.323Z,70.29
2022-11-09T01:37:44.021Z,69.58
2022-11-09T01:38:46.065Z,69.83
2022-11-09T01:39:47.709Z,70.30
2022-11-09T01:40:49.365Z,69.79
2022-11-09T01:41:51.053Z,70.15
2022-11-09T01:42:52.758Z,70.15
2022-11-09T01:44:03.468Z,70.50
2022-11-09T01:45:17.355Z,70.40
2022-11-09T01:46:22.933Z,70.62
2022-11-09T01:47:25.883Z,70.88
2022-11-09T01:48:41.618Z,70.47
2022-11-09T01:49:50.824Z,70.41
2022-11-09T01:50:58.635Z,70.64
2022-11-09T01:52:26.568Z,70.81
2022-11-09T01:53:32.804Z,70.92
2022-11-09T01:54:48.287Z,71.31
2022-11-09T01:55:53.205Z,70.78
2022-11-09T01:56:59.576Z,70.85
2022-11-09T01:58:07.705Z,70.70
2022-11-09T01:59:15.050Z,71.16
2022-11-09T02:00:17.794Z,70.44
2022-11-09T02:01:19.579Z,70.45
2022-11-09T02:02:21.973Z,71.00
2022-11-09T02:03:29.731Z,70.80
2022-11-09T02:04:43.749Z,71.14
2022-11-09T02:05:46.475Z,70.93
2022-11-09T02:06:49.456Z,70.85
2022-11-09T02:07:52.300Z,71.02
2022-11-09T02:08:58.572Z,71.98
2022-11-09T02:10:12.696Z,72.11
2022-11-09T02:11:17.960Z,72.13
2022-11-09T02:12:20.386Z,72.17
2022-11-09T02:13:25.182Z,71.96
2022-11-09T02:14:29.564Z,71.26
2022-11-09T02:15:31.229Z,71.49
2022-11-09T02:16:33.776Z,71.30
2022-11-09T02:17:36.338Z,70.97
2022-11-09T02:18:52.148Z,71.12
2022-11-09T02:19:53.830Z,71.33
2022-11-09T02:20:58.164Z,71.31
2022-11-09T02:21:59.974Z,71.21
2022-11-09T02:23:01.786Z,71.09
2022-11-09T02:24:03.511Z,71.40
2022-11-09T02:25:05.889Z,70.64
2022-11-09T02:26:12.347Z,71.72
2022-11-09T02:27:14.048Z,71.89
2022-11-09T02:28:17.608Z,70.97
2022-11-09T02:29:35.632Z,70.51
2022-11-09T02:30:37.503Z,70.90
2022-11-09T02:31:44.927Z,71.10
2022-11-09T02:32:46.668Z,71.08
2022-11-09T02:33:51.316Z,71.24
2022-11-09T02:34:53.045Z,70.39
2022-11-09T02:35:54.754Z,70.43
2022-11-09T02:36:56.444Z,69.91
2022-11-09T02:37:58.442Z,70.12
2022-11-09T02:39:00.178Z,70.35
2022-11-09T02:40:07.702Z,70.52
2022-11-09T02:41:11.989Z,71.34
2022-11-09T02:42:21.198Z,72.32
2022-11-09T02:43:23.628Z,72.37
2022-11-09T02:44:26.406Z,72.19
2022-11-09T02:45:28.116Z,72.02
2022-11-09T02:46:35.607Z,71.43
2022-11-09T02:47:37.261Z,71.83
2022-11-09T02:48:38.920Z,72.33
2022-11-09T02:49:40.603Z,72.21
2022-11-09T02:50:42.387Z,71.46
2022-11-09T02:51:44.171Z,71.09
2022-11-09T02:52:45.830Z,71.55
2022-11-09T02:53:47.487Z,71.99
2022-11-09T02:54:49.170Z,72.39
2022-11-09T02:55:51.046Z,72.72
2022-11-09T02:56:52.740Z,72.68
2022-11-09T02:57:54.394Z,72.36
2022-11-09T02:58:56.181Z,72.95
2022-11-09T02:59:57.861Z,73.74
2022-11-09T03:00:59.541Z,74.20
2022-11-09T03:02:01.727Z,74.27
2022-11-09T03:03:04.253Z,74.06
2022-11-09T03:04:05.961Z,73.76
2022-11-09T03:05:08.112Z,74.19
2022-11-09T03:06:09.781Z,73.33
2022-11-09T03:07:11.520Z,73.26
2022-11-09T03:08:13.208Z,72.81
2022-11-09T03:09:14.902Z,73.74
2022-11-09T03:10:16.859Z,73.25
2022-11-09T03:11:18.547Z,73.73
2022-11-09T03:12:29.418Z,73.15
2022-11-09T03:13:31.103Z,72.37
2022-11-09T03:14:33.470Z,72.34
2022-11-09T03:15:35.594Z,72.86
2022-11-09T03:16:38.669Z,72.40
2022-11-09T03:17:40.699Z,72.98
2022-11-09T03:18:42.391Z,72.74
2022-11-09T03:19:44.767Z,73.84
2022-11-09T03:20:46.395Z,73.49
2022-11-09T03:21:48.132Z,73.31
2022-11-09T03:22:49.950Z,73.43
2022-11-09T03:23:51.724Z,73.05
2022-11-09T03:24:53.369Z,72.87
2022-11-09T03:25:55.020Z,72.86
2022-11-09T03:26:56.674Z,72.54
2022-11-09T03:28:02.881Z,72.74
2022-11-09T03:29:04.608Z,72.55
2022-11-09T03:30:06.970Z,72.90
2022-11-09T03:31:09.049Z,72.16
2022-11-09T03:32:10.931Z,72.50
2022-11-09T03:33:14.432Z,73.22
2022-11-09T03:34:16.059Z,72.71
2022-11-09T03:35:17.866Z,72.70
2022-11-09T03:36:19.519Z,73.20
2022-11-09T03:37:21.227Z,73.52
2022-11-09T03:38:23.406Z,73.02
2022-11-09T03:39:25.238Z,73.05
2022-11-09T03:40:26.927Z,74.34
2022-11-09T03:41:28.567Z,74.34
2022-11-09T03:42:30.239Z,74.29
2022-11-09T03:43:31.960Z,74.63
2022-11-09T03:44:33.601Z,74.35
2022-11-09T03:45:35.265Z,74.08
2022-11-09T03:46:37.021Z,74.46
2022-11-09T03:47:42.996Z,74.54
2022-11-09T03:48:44.694Z,75.04
2022-11-09T03:49:46.391Z,74.61
2022-11-09T03:50:48.117Z,74.31
2022-11-09T03:51:50.910Z,73.60
2022-11-09T03:52:52.768Z,73.50
2022-11-09T03:53:54.456Z,73.50
2022-11-09T03:54:56.122Z,73.02
2022-11-09T03:55:58.377Z,72.63
2022-11-09T03:57:00.046Z,72.62
2022-11-09T03:58:02.229Z,73.12
2022-11-09T03:59:03.941Z,72.33
2022-11-09T04:00:07.752Z,72.72
2022-11-09T04:01:10.966Z,73.14
2022-11-09T04:02:12.797Z,72.83
2022-11-09T04:03:14.483Z,72.95
2022-11-09T04:04:16.176Z,72.75
2022-11-09T04:05:17.973Z,72.53
2022-11-09T04:06:19.615Z,72.91
2022-11-09T04:07:21.247Z,73.60
2022-11-09T04:08:23.092Z,72.69
2022-11-09T04:09:24.759Z,72.63
2022-11-09T04:10:27.245Z,73.18
2022-11-09T04:11:28.926Z,72.74
2022-11-09T04:12:30.630Z,73.70
2022-11-09T04:13:32.308Z,74.19
2022-11-09T04:14:33.948Z,74.18
2022-11-09T04:15:36.459Z,74.27
2022-11-09T04:16:38.601Z,73.77
2022-11-09T04:17:40.948Z,74.27
2022-11-09T04:18:42.584Z,74.01
2022-11-09T04:19:44.239Z,74.38
2022-11-09T04:20:45.904Z,74.22
2022-11-09T04:21:47.566Z,74.06
2022-11-09T04:23:00.256Z,73.73
2022-11-09T04:24:01.956Z,73.68
2022-11-09T04:25:05.169Z,73.25
2022-11-09T04:26:06.960Z,72.99
2022-11-09T04:27:08.623Z,72.79
2022-11-09T04:28:12.808Z,72.54
2022-11-09T04:29:14.563Z,72.48
2022-11-09T04:30:16.461Z,72.89
2022-11-09T04:31:18.147Z,73.08
2022-11-09T04:32:19.797Z,73.04
2022-11-09T04:33:21.880Z,73.08
2022-11-09T04:34:23.882Z,73.67
2022-11-09T04:35:27.789Z,73.45
2022-11-09T04:36:29.419Z,73.42
2022-11-09T04:37:31.100Z,73.53
2022-11-09T04:38:33.066Z,73.37
2022-11-09T04:39:34.762Z,72.70
2022-11-09T04:40:36.825Z,73.46
2022-11-09T04:41:38.573Z,73.08
2022-11-09T04:42:40.207Z,73.31
2022-11-09T04:43:42.340Z,74.46
2022-11-09T04:44:43.990Z,74.33
2022-11-09T04:45:47.466Z,74.24
2022-11-09T04:46:49.128Z,74.96
2022-11-09T04:47:50.784Z,74.64
2022-11-09T04:48:52.552Z,75.24
2022-11-09T04:49:54.217Z,75.03
2022-11-09T04:51:01.454Z,74.88
2022-11-09T04:52:03.228Z,74.71
2022-11-09T04:53:09.806Z,74.69
2022-11-09T04:54:11.724Z,74.48
2022-11-09T04:55:13.345Z,75.28
2022-11-09T04:56:15.014Z,74.64
2022-11-09T04:57:16.665Z,75.26
2022-11-09T04:58:23.785Z,74.66
2022-11-09T04:59:26.543Z,74.64
2022-11-09T05:00:28.317Z,74.41
2022-11-09T05:01:30.062Z,74.74
2022-11-09T05:02:32.323Z,75.03
2022-11-09T05:03:34.793Z,75.47
2022-11-09T05:04:36.482Z,76.17
2022-11-09T05:05:44.076Z,76.50
2022-11-09T05:06:48.804Z,76.83
2022-11-09T05:07:50.479Z,76.76
2022-11-09T05:08:53.451Z,77.21
2022-11-09T05:09:55.163Z,77.53
2022-11-09T05:10:58.189Z,77.14
2022-11-09T05:11:59.847Z,76.57
2022-11-09T05:13:07.228Z,76.13
2022-11-09T05:14:08.888Z,76.12
2022-11-09T05:15:11.173Z,75.86
2022-11-09T05:16:13.259Z,75.69
2022-11-09T05:17:14.977Z,75.97
2022-11-09T05:18:16.647Z,75.32
2022-11-09T05:19:18.351Z,75.59
2022-11-09T05:20:20.145Z,75.57
2022-11-09T05:21:22.191Z,75.72
2022-11-09T05:22:42.577Z,75.45
2022-11-09T05:23:59.772Z,75.63
2022-11-09T05:25:01.537Z,75.58
2022-11-09T05:26:03.440Z,75.71
2022-11-09T05:27:05.191Z,75.67
2022-11-09T05:28:06.881Z,76.16
2022-11-09T05:29:10.669Z,76.11
2022-11-09T05:30:12.636Z,75.66
2022-11-09T05:31:14.420Z,76.29
2022-11-09T05:32:16.046Z,76.09
2022-11-09T05:33:18.175Z,76.50
2022-11-09T05:34:20.165Z,76.60
2022-11-09T05:35:21.826Z,76.70
2022-11-09T05:36:24.537Z,77.18
2022-11-09T05:37:26.232Z,77.29
2022-11-09T05:38:27.931Z,76.92
2022-11-09T05:39:29.587Z,77.09
2022-11-09T05:40:32.298Z,77.27
2022-11-09T05:41:33.947Z,77.19
2022-11-09T05:42:38.994Z,76.46
2022-11-09T05:43:41.375Z,76.43
2022-11-09T05:44:43.137Z,76.07
2022-11-09T05:45:45.134Z,75.87
2022-11-09T05:46:46.776Z,76.38
2022-11-09T05:47:48.564Z,76.43
2022-11-09T05:48:50.293Z,76.10
2022-11-09T05:49:51.975Z,75.62
2022-11-09T05:50:53.673Z,75.58
2022-11-09T05:51:55.305Z,75.14
2022-11-09T05:52:59.493Z,75.86
2022-11-09T05:54:01.126Z,75.80
2022-11-09T05:55:03.028Z,75.89
2022-11-09T05:56:05.947Z,76.07
2022-11-09T05:57:07.640Z,76.36
2022-11-09T05:58:09.526Z,76.74
2022-11-09T05:59:11.330Z,76.68
2022-11-09T06:00:14.011Z,77.18
2022-11-09T06:01:18.851Z,77.19
2022-11-09T06:02:20.859Z,77.31
2022-11-09T06:03:22.919Z,77.27
2022-11-09T06:04:24.932Z,76.86
2022-11-09T06:05:26.610Z,76.56
2022-11-09T06:06:30.067Z,76.29
2022-11-09T06:07:32.878Z,76.73
2022-11-09T06:08:35.016Z,77.18
2022-11-09T06:09:36.684Z,77.04
2022-11-09T06:10:38.726Z,76.55
2022-11-09T06:11:40.455Z,75.89
2022-11-09T06:12:42.081Z,75.96
2022-11-09T06:13:43.756Z,76.73
2022-11-09T06:14:45.452Z,76.75
2022-11-09T06:15:53.988Z,76.93
2022-11-09T06:16:55.733Z,76.49
2022-11-09T06:17:59.403Z,76.51
2022-11-09T06:19:01.251Z,76.18
2022-11-09T06:20:04.289Z,76.10
2022-11-09T06:21:06.410Z,76.59
2022-11-09T06:22:08.366Z,76.65
2022-11-09T06:23:10.082Z,76.96
2022-11-09T06:24:11.891Z,76.76
2022-11-09T06:25:13.612Z,76.27
2022-11-09T06:26:15.515Z,75.82
2022-11-09T06:27:17.157Z,75.96
2022-11-09T06:28:18.899Z,75.32
2022-11-09T06:29:20.556Z,75.45
2022-11-09T06:30:22.933Z,76.17
2022-11-09T06:31:24.605Z,75.49
2022-11-09T06:32:26.342Z,75.90
2022-11-09T06:33:30.771Z,75.76
2022-11-09T06:34:32.485Z,75.46
2022-11-09T06:35:34.164Z,74.97
2022-11-09T06:36:35.820Z,74.46
2022-11-09T06:37:37.647Z,74.80
2022-11-09T06:38:39.957Z,74.86
2022-11-09T06:39:41.623Z,75.29
2022-11-09T06:40:44.480Z,74.78
2022-11-09T06:41:47.628Z,74.89
2022-11-09T06:42:49.582Z,74.12
2022-11-09T06:43:51.277Z,74.05
2022-11-09T06:44:52.940Z,73.55
2022-11-09T06:45:55.273Z,73.40
2022-11-09T06:46:56.968Z,73.71
2022-11-09T06:48:00.356Z,73.36
2022-11-09T06:49:02.087Z,73.28
2022-11-09T06:50:04.009Z,73.16
2022-11-09T06:51:06.791Z,73.18
2022-11-09T06:52:08.493Z,72.59
2022-11-09T06:53:12.893Z,72.75
2022-11-09T06:54:14.551Z,72.75
2022-11-09T06:55:16.309Z,72.69
2022-11-09T06:56:18.047Z,72.65
2022-11-09T06:57:19.694Z,72.94
2022-11-09T06:58:22.169Z,73.49
2022-11-09T06:59:23.986Z,74.02
2022-11-09T07:00:27.712Z,73.78
2022-11-09T07:01:29.914Z,73.88
2022-11-09T07:02:31.832Z,73.80
2022-11-09T07:03:33.486Z,73.26
2022-11-09T07:04:35.127Z,73.34
2022-11-09T07:05:40.206Z,74.82
2022-11-09T07:06:42.197Z,75.37
2022-11-09T07:07:44.331Z,73.28
2022-11-09T07:08:45.965Z,73.69
2022-11-09T07:09:47.624Z,75.35
2022-11-09T07:10:49.380Z,75.25
2022-11-09T07:11:51.065Z,74.10
2022-11-09T07:12:52.739Z,74.27
2022-11-09T07:13:57.368Z,74.09
2022-11-09T07:14:59.472Z,72.31
2022-11-09T07:16:01.443Z,71.34
2022-11-09T07:17:03.190Z,71.97
2022-11-09T07:18:07.437Z,70.50
2022-11-09T07:19:09.098Z,69.06
2022-11-09T07:20:11.768Z,66.35
2022-11-09T07:21:14.541Z,65.37
2022-11-09T07:22:16.441Z,66.21
2022-11-09T07:23:18.693Z,67.06
2022-11-09T07:24:20.704Z,65.69
2022-11-09T07:25:22.898Z,64.24
2022-11-09T07:26:24.596Z,63.80
2022-11-09T07:27:28.120Z,62.95
2022-11-09T07:28:30.500Z,62.41
2022-11-09T07:29:32.189Z,62.58
2022-11-09T07:30:34.173Z,61.23
2022-11-09T07:31:35.819Z,59.23
2022-11-09T07:33:08.652Z,59.02
2022-11-09T07:34:04.850Z,59.11
2022-11-09T07:35:08.166Z,58.88
2022-11-09T07:36:09.885Z,60.52
2022-11-09T07:37:11.556Z,59.67
2022-11-09T07:38:15.855Z,57.40
2022-11-09T07:39:17.518Z,56.13
2022-11-09T07:40:19.912Z,57.44
2022-11-09T07:41:21.557Z,55.88
2022-11-09T07:42:24.182Z,55.29
2022-11-09T07:43:26.051Z,54.60
2022-11-09T07:44:27.727Z,52.30
2022-11-09T07:45:30.453Z,53.79
2022-11-09T07:46:32.494Z,53.02
2022-11-09T07:47:34.151Z,52.16
2022-11-09T07:48:35.805Z,52.73
2022-11-09T07:49:37.483Z,52.58
2022-11-09T07:50:40.506Z,52.11
2022-11-09T07:51:42.919Z,51.80
2022-11-09T07:52:44.587Z,51.85
2022-11-09T07:53:46.281Z,51.36
2022-11-09T07:54:51.979Z,50.01
2022-11-09T07:56:01.781Z,50.11
2022-11-09T07:57:03.561Z,48.50
2022-11-09T07:58:11.722Z,48.58
2022-11-09T07:59:13.382Z,47.77
2022-11-09T08:00:19.842Z,47.14
2022-11-09T08:01:24.241Z,46.28
2022-11-09T08:02:26.015Z,46.81
2022-11-09T08:03:27.982Z,44.77
2022-11-09T08:04:29.714Z,44.29
2022-11-09T08:05:31.887Z,45.57
2022-11-09T08:06:33.806Z,45.91
2022-11-09T08:07:35.547Z,45.75
2022-11-09T08:08:37.236Z,44.46
2022-11-09T08:09:38.906Z,44.65
2022-11-09T08:10:40.648Z,44.78
2022-11-09T08:11:42.283Z,43.67
2022-11-09T08:12:43.916Z,44.39
2022-11-09T08:13:45.693Z,43.55
2022-11-09T08:14:47.370Z,43.39
2022-11-09T08:15:49.567Z,43.41
2022-11-09T08:16:51.257Z,42.69
2022-11-09T08:17:53.315Z,42.08
2022-11-09T08:18:54.990Z,42.44
2022-11-09T08:19:56.659Z,41.19
2022-11-09T08:21:02.287Z,41.70
2022-11-09T08:22:03.943Z,41.06
2022-11-09T08:23:06.915Z,41.65
2022-11-09T08:24:08.817Z,41.68
2022-11-09T08:25:11.291Z,40.62
2022-11-09T08:26:13.054Z,40.01
2022-11-09T08:27:14.708Z,40.04
2022-11-09T08:28:16.590Z,39.40
2022-11-09T08:29:18.460Z,38.26
2022-11-09T08:30:21.543Z,38.49
2022-11-09T08:31:23.310Z,38.06
2022-11-09T08:32:24.955Z,37.16
2022-11-09T08:33:28.565Z,37.90
2022-11-09T08:34:30.210Z,38.11
2022-11-09T08:35:32.088Z,38.78
2022-11-09T08:36:36.277Z,40.15
2022-11-09T08:37:38.908Z,39.05
2022-11-09T08:38:41.715Z,38.28
2022-11-09T08:39:43.403Z,37.99
2022-11-09T08:40:45.076Z,36.99
2022-11-09T08:41:46.750Z,37.36
2022-11-09T08:42:48.497Z,37.64
2022-11-09T08:43:50.179Z,37.09
2022-11-09T08:44:51.834Z,37.16
2022-11-09T08:45:53.936Z,35.08
2022-11-09T08:46:55.566Z,36.07
2022-11-09T08:47:59.082Z,35.50
2022-11-09T08:49:00.818Z,35.81
2022-11-09T08:50:04.638Z,34.06
2022-11-09T08:51:06.432Z,33.97
2022-11-09T08:52:08.156Z,34.04
2022-11-09T08:53:09.800Z,33.22
2022-11-09T08:54:13.636Z,33.74
2022-11-09T08:55:15.325Z,34.19
2022-11-09T08:56:19.164Z,33.38
2022-11-09T08:57:20.813Z,33.04
2022-11-09T08:58:22.873Z,32.51
2022-11-09T08:59:24.819Z,32.06
2022-11-09T09:00:27.267Z,32.40
2022-11-09T09:01:29.067Z,33.07
2022-11-09T09:02:30.848Z,32.05
2022-11-09T09:03:32.516Z,31.14
2022-11-09T09:04:34.192Z,31.77
2022-11-09T09:05:36.698Z,31.93
2022-11-09T09:06:38.569Z,31.45
2022-11-09T09:07:40.344Z,31.56
2022-11-09T09:08:41.994Z,30.58
2022-11-09T09:09:44.763Z,31.29
2022-11-09T09:10:46.406Z,30.63
2022-11-09T09:11:48.056Z,31.21
2022-11-09T09:12:49.712Z,32.52
2022-11-09T09:13:51.367Z,30.91
2022-11-09T09:14:53.041Z,31.46
2022-11-09T09:15:54.682Z,32.66
2022-11-09T09:16:56.808Z,33.20
2022-11-09T09:18:02.377Z,34.40
2022-11-09T09:19:04.898Z,34.70
2022-11-09T09:20:07.135Z,34.86
2022-11-09T09:21:10.440Z,35.10
2022-11-09T09:22:12.481Z,33.93
2022-11-09T09:23:15.395Z,34.58
2022-11-09T09:24:17.389Z,33.91
2022-11-09T09:25:19.034Z,33.96
2022-11-09T09:26:20.848Z,33.18
2022-11-09T09:27:22.537Z,33.39
2022-11-09T09:28:24.224Z,34.14
2022-11-09T09:29:25.936Z,33.25
2022-11-09T09:30:27.662Z,33.92
2022-11-09T09:31:29.323Z,33.82
2022-11-09T09:32:30.988Z,32.72
2022-11-09T09:33:32.770Z,32.32
2022-11-09T09:34:34.443Z,32.22
2022-11-09T09:35:36.176Z,32.84
2022-11-09T09:36:42.041Z,32.37
2022-11-09T09:37:46.553Z,32.05
2022-11-09T09:38:52.721Z,31.86
2022-11-09T09:39:54.356Z,32.20
2022-11-09T09:41:05.983Z,32.39
2022-11-09T09:42:14.376Z,32.46
2022-11-09T09:43:26.016Z,33.36
2022-11-09T09:44:35.373Z,32.30
2022-11-09T09:45:49.162Z,30.98
2022-11-09T09:46:59.214Z,31.75
2022-11-09T09:48:04.739Z,32.00
2022-11-09T09:49:14.807Z,32.20
2022-11-09T09:50:23.071Z,31.50
2022-11-09T09:51:29.489Z,31.60
2022-11-09T09:53:22.318Z,31.68
2022-11-09T09:54:30.673Z,31.63
2022-11-09T09:55:39.047Z,31.34
2022-11-09T09:56:44.246Z,31.09
2022-11-09T09:57:54.359Z,30.96
2022-11-09T09:59:28.080Z,30.25
2022-11-09T10:00:33.399Z,30.82
2022-11-09T10:01:41.409Z,32.08
2022-11-09T10:02:43.398Z,31.37
2022-11-09T10:03:45.050Z,30.94
2022-11-09T10:04:47.190Z,31.91
2022-11-09T10:05:58.602Z,32.70
2022-11-09T10:07:00.446Z,32.81
2022-11-09T10:08:16.192Z,32.34
2022-11-09T10:09:23.851Z,32.34
2022-11-09T10:11:03.897Z,32.26
2022-11-09T10:12:23.118Z,33.23
2022-11-09T10:13:50.627Z,32.25
2022-11-09T10:15:13.916Z,32.69
2022-11-09T10:16:29.624Z,33.25
2022-11-09T10:17:49.838Z,32.23
2022-11-09T10:18:54.245Z,32.07
2022-11-09T10:20:24.078Z,32.49
2022-11-09T10:21:37.716Z,32.22
2022-11-09T10:23:14.710Z,31.43
2022-11-09T10:24:36.776Z,30.80
2022-11-09T10:27:02.918Z,30.79
2022-11-09T10:28:13.259Z,30.89
2022-11-09T10:29:24.454Z,31.62
2022-11-09T10:30:26.672Z,32.27
2022-11-09T10:31:32.861Z,33.41
2022-11-09T10:32:35.092Z,34.36
2022-11-09T10:33:37.177Z,33.55
2022-11-09T10:35:03.173Z,35.09
2022-11-09T10:36:25.073Z,34.33
2022-11-09T10:37:37.087Z,35.27
2022-11-09T10:38:47.226Z,34.79
2022-11-09T10:40:05.537Z,35.34
2022-11-09T10:41:39.817Z,34.65
2022-11-09T10:42:56.074Z,34.69
2022-11-09T10:43:57.842Z,33.95
2022-11-09T10:45:02.248Z,34.75
2022-11-09T10:46:06.602Z,34.35
2022-11-09T10:47:16.821Z,33.82
2022-11-09T10:48:31.169Z,33.40
2022-11-09T10:49:34.298Z,33.11
2022-11-09T10:50:47.925Z,33.98
2022-11-09T10:51:49.713Z,34.35
2022-11-09T10:52:51.612Z,33.85
2022-11-09T10:54:23.507Z,34.66
2022-11-09T10:55:29.006Z,34.43
2022-11-09T10:57:05.148Z,34.00
2022-11-09T10:58:18.164Z,34.11
2022-11-09T10:59:44.713Z,35.56
2022-11-09T11:01:15.682Z,34.69
2022-11-09T11:02:29.042Z,35.09
2022-11-09T11:03:35.448Z,35.27
2022-11-09T11:04:37.145Z,35.40
2022-11-09T11:05:39.904Z,34.48
2022-11-09T11:06:41.627Z,35.18
2022-11-09T11:07:43.683Z,36.23
2022-11-09T11:09:07.538Z,35.58
2022-11-09T11:10:10.302Z,36.59
2022-11-09T11:11:33.104Z,35.83
2022-11-09T11:12:36.338Z,37.19
2022-11-09T11:13:38.008Z,36.70
2022-11-09T11:14:44.640Z,37.10
2022-11-09T11:15:46.808Z,37.76
2022-11-09T11:16:50.857Z,38.70
2022-11-09T11:18:02.151Z,38.29
2022-11-09T11:19:04.711Z,38.84
2022-11-09T11:20:31.018Z,39.16
2022-11-09T11:21:32.678Z,39.27
2022-11-09T11:22:34.387Z,39.09
2022-11-09T11:23:37.121Z,39.25
2022-11-09T11:24:51.836Z,40.36
2022-11-09T11:25:53.430Z,39.47
2022-11-09T11:27:10.210Z,39.78
2022-11-09T11:28:24.445Z,39.97
2022-11-09T11:29:52.325Z,40.83
2022-11-09T11:30:54.022Z,41.82
2022-11-09T11:31:55.751Z,40.71
2022-11-09T11:32:58.073Z,41.00
2022-11-09T11:34:01.006Z,41.47
2022-11-09T11:35:18.173Z,42.11
2022-11-09T11:36:26.074Z,42.88
2022-11-09T11:37:37.947Z,42.76
2022-11-09T11:38:45.667Z,42.14
2022-11-09T11:40:04.345Z,42.20
2022-11-09T11:41:28.065Z,43.44
2022-11-09T11:43:03.736Z,42.37
2022-11-09T11:44:20.657Z,42.25
2022-11-09T11:45:41.832Z,42.37
2022-11-09T11:46:54.417Z,43.28
2022-11-09T11:48:14.019Z,42.35
2022-11-09T11:49:30.695Z,42.18
2022-11-09T11:50:44.503Z,42.12
2022-11-09T11:52:27.720Z,41.98
2022-11-09T11:53:51.427Z,42.34
2022-11-09T11:55:23.416Z,42.84
2022-11-09T11:56:36.962Z,43.58
2022-11-09T11:58:16.703Z,44.04
2022-11-09T11:59:55.976Z,44.52
2022-11-09T12:01:00.250Z,43.65
2022-11-09T12:02:23.921Z,45.16
2022-11-09T12:03:59.344Z,44.60
2022-11-09T12:05:09.737Z,44.39
2022-11-09T12:06:35.145Z,44.59
2022-11-09T12:07:58.720Z,44.69
2022-11-09T12:09:06.345Z,45.19
2022-11-09T12:10:28.070Z,44.96
2022-11-09T12:11:57.375Z,45.30
2022-11-09T12:13:11.095Z,44.76
2022-11-09T12:14:18.748Z,45.14
2022-11-09T12:15:23.443Z,46.19
2022-11-09T12:16:34.258Z,45.00
2022-11-09T12:17:44.904Z,45.07
2022-11-09T12:19:25.452Z,46.45
2022-11-09T12:20:41.340Z,45.41
2022-11-09T12:21:59.538Z,46.08
2022-11-09T12:23:30.174Z,46.28
2022-11-09T12:24:55.257Z,45.83
2022-11-09T12:26:33.657Z,46.01
2022-11-09T12:27:53.435Z,45.95
2022-11-09T12:29:07.199Z,46.93
2022-11-09T12:30:16.669Z,46.40
2022-11-09T12:31:36.692Z,46.32
2022-11-09T12:32:53.487Z,46.34
2022-11-09T12:34:03.186Z,47.00
2022-11-09T12:35:21.022Z,46.53
2022-11-09T12:36:29.165Z,47.81
2022-11-09T12:37:39.332Z,47.08
2022-11-09T12:39:20.477Z,46.77
2022-11-09T12:41:02.418Z,46.79
2022-11-09T12:42:06.463Z,46.86
2022-11-09T12:43:11.122Z,47.08
2022-11-09T12:44:22.028Z,47.34
2022-11-09T12:45:32.801Z,48.04
2022-11-09T12:46:40.341Z,47.23
2022-11-09T12:47:44.372Z,46.90
2022-11-09T12:48:48.432Z,46.58
2022-11-09T12:49:51.282Z,46.85
2022-11-09T12:50:53.919Z,46.62
2022-11-09T12:51:58.933Z,47.16
2022-11-09T12:53:03.760Z,46.50
2022-11-09T12:54:11.488Z,46.91
2022-11-09T12:55:19.914Z,46.50
2022-11-09T12:56:40.480Z,46.62
2022-11-09T12:57:46.224Z,46.58
2022-11-09T12:58:47.968Z,47.23
2022-11-09T12:59:58.153Z,47.25
2022-11-09T13:01:12.464Z,47.74
2022-11-09T13:02:23.715Z,47.76
2022-11-09T13:03:27.610Z,47.47
2022-11-09T13:04:29.841Z,47.62
2022-11-09T13:05:37.814Z,47.54
2022-11-09T13:06:39.702Z,48.17
2022-11-09T13:07:49.908Z,47.93
2022-11-09T13:09:01.562Z,48.50
2022-11-09T13:10:04.309Z,48.56
2022-11-09T13:11:48.785Z,47.96
2022-11-09T13:12:50.483Z,48.44
2022-11-09T13:13:52.128Z,48.88
2022-11-09T13:14:54.008Z,48.64
2022-11-09T13:16:33.346Z,48.71
2022-11-09T13:17:37.752Z,48.80
2022-11-09T13:18:45.483Z,48.55
2022-11-09T13:19:48.552Z,48.89
2022-11-09T13:20:56.980Z,48.93
2022-11-09T13:21:59.360Z,48.65
2022-11-09T13:23:41.584Z,49.50
2022-11-09T13:25:02.186Z,48.61
2022-11-09T13:26:05.268Z,48.92
2022-11-09T13:27:29.668Z,49.59
2022-11-09T13:28:31.274Z,49.13
2022-11-09T13:29:42.067Z,48.70
2022-11-09T13:30:43.925Z,49.06
2022-11-09T13:32:04.205Z,49.68
2022-11-09T13:33:05.776Z,49.41
2022-11-09T13:34:39.639Z,48.89
2022-11-09T13:35:41.220Z,49.64
2022-11-09T13:36:42.908Z,49.41
2022-11-09T13:37:48.180Z,49.28
2022-11-09T13:39:28.131Z,49.39
2022-11-09T13:40:32.800Z,49.15
2022-11-09T13:41:34.443Z,49.16
2022-11-09T13:42:36.952Z,49.10
2022-11-09T13:43:40.811Z,49.53
2022-11-09T13:44:44.626Z,49.50
2022-11-09T13:46:05.079Z,49.28
2022-11-09T13:47:22.142Z,49.17
2022-11-09T13:48:29.948Z,49.43
2022-11-09T13:49:45.424Z,49.34
2022-11-09T13:50:56.533Z,49.33
2022-11-09T13:51:58.464Z,49.18
2022-11-09T13:53:01.510Z,49.50
2022-11-09T13:54:05.635Z,49.20
2022-11-09T13:55:27.222Z,49.09
2022-11-09T13:56:37.676Z,49.10
2022-11-09T13:57:40.582Z,49.46
2022-11-09T13:58:43.298Z,49.52
2022-11-09T13:59:49.439Z,49.40
2022-11-09T14:00:51.074Z,50.13
2022-11-09T14:01:55.336Z,49.92
2022-11-09T14:03:06.785Z,49.61
2022-11-09T14:04:22.121Z,50.36
2022-11-09T14:05:38.698Z,51.12
2022-11-09T14:06:40.479Z,50.46